sensor_id;sensor_type;location;lat;lon;timestamp;temperature;humidity
40323;DHT22;26030;51.164;17.100;2023-07-31T00:04:06;25.80;59.20
40323;DHT22;26030;51.164;17.100;2023-07-31T00:09:10;25.80;59.30
40323;DHT22;26030;51.164;17.100;2023-07-31T00:14:16;25.90;59.10
40323;DHT22;26030;51.164;17.100;2023-07-31T00:19:26;25.90;59.20
40323;DHT22;26030;51.164;17.100;2023-07-31T00:24:30;26.00;59.10
40323;DHT22;26030;51.164;17.100;2023-07-31T00:29:34;26.00;59.00
40323;DHT22;26030;51.164;17.100;2023-07-31T00:34:40;25.90;59.20
40323;DHT22;26030;51.164;17.100;2023-07-31T00:39:44;25.90;59.30
40323;DHT22;26030;51.164;17.100;2023-07-31T00:44:48;25.90;59.30
40323;DHT22;26030;51.164;17.100;2023-07-31T00:49:52;25.90;59.20
40323;DHT22;26030;51.164;17.100;2023-07-31T00:54:57;25.80;59.40
40323;DHT22;26030;51.164;17.100;2023-07-31T01:00:02;25.80;59.70
40323;DHT22;26030;51.164;17.100;2023-07-31T01:05:07;25.70;59.30
40323;DHT22;26030;51.164;17.100;2023-07-31T01:10:15;25.70;59.30
40323;DHT22;26030;51.164;17.100;2023-07-31T01:15:24;25.70;59.40
40323;DHT22;26030;51.164;17.100;2023-07-31T01:20:28;25.70;60.00
40323;DHT22;26030;51.164;17.100;2023-07-31T01:31:00;25.70;60.40
40323;DHT22;26030;51.164;17.100;2023-07-31T01:36:06;25.60;60.30
40323;DHT22;26030;51.164;17.100;2023-07-31T01:41:12;25.60;60.00
40323;DHT22;26030;51.164;17.100;2023-07-31T01:46:16;25.70;59.80
40323;DHT22;26030;51.164;17.100;2023-07-31T01:51:21;25.70;59.70
40323;DHT22;26030;51.164;17.100;2023-07-31T01:56:25;25.70;59.80
40323;DHT22;26030;51.164;17.100;2023-07-31T02:01:30;25.70;59.60
40323;DHT22;26030;51.164;17.100;2023-07-31T02:06:36;25.60;59.30
40323;DHT22;26030;51.164;17.100;2023-07-31T02:11:42;25.60;59.50
40323;DHT22;26030;51.164;17.100;2023-07-31T02:16:46;25.60;59.50
40323;DHT22;26030;51.164;17.100;2023-07-31T02:21:51;25.60;59.60
40323;DHT22;26030;51.164;17.100;2023-07-31T02:26:55;25.60;59.70
40323;DHT22;26030;51.164;17.100;2023-07-31T02:31:59;25.60;59.60
40323;DHT22;26030;51.164;17.100;2023-07-31T02:37:04;25.60;59.70
40323;DHT22;26030;51.164;17.100;2023-07-31T02:42:08;25.60;59.70
40323;DHT22;26030;51.164;17.100;2023-07-31T02:47:13;25.60;59.90
40323;DHT22;26030;51.164;17.100;2023-07-31T02:52:17;25.60;60.00
40323;DHT22;26030;51.164;17.100;2023-07-31T02:57:21;25.60;59.90
40323;DHT22;26030;51.164;17.100;2023-07-31T03:02:32;25.60;59.90
40323;DHT22;26030;51.164;17.100;2023-07-31T03:07:37;25.60;59.80
40323;DHT22;26030;51.164;17.100;2023-07-31T03:12:42;25.60;60.00
40323;DHT22;26030;51.164;17.100;2023-07-31T03:17:50;25.60;59.70
40323;DHT22;26030;51.164;17.100;2023-07-31T03:22:54;25.60;59.60
40323;DHT22;26030;51.164;17.100;2023-07-31T03:27:58;25.60;59.70
40323;DHT22;26030;51.164;17.100;2023-07-31T03:33:03;25.60;59.60
40323;DHT22;26030;51.164;17.100;2023-07-31T03:38:07;25.60;59.70
40323;DHT22;26030;51.164;17.100;2023-07-31T03:43:23;25.60;59.60
40323;DHT22;26030;51.164;17.100;2023-07-31T03:48:28;25.60;59.60
40323;DHT22;26030;51.164;17.100;2023-07-31T03:53:32;25.60;59.50
40323;DHT22;26030;51.164;17.100;2023-07-31T03:58:37;25.60;59.60
40323;DHT22;26030;51.164;17.100;2023-07-31T04:03:41;25.60;59.40
40323;DHT22;26030;51.164;17.100;2023-07-31T04:08:54;25.60;59.50
40323;DHT22;26030;51.164;17.100;2023-07-31T04:13:59;25.60;59.30
40323;DHT22;26030;51.164;17.100;2023-07-31T04:19:06;25.60;59.40
40323;DHT22;26030;51.164;17.100;2023-07-31T04:24:10;25.50;59.50
40323;DHT22;26030;51.164;17.100;2023-07-31T04:29:17;25.50;59.50
40323;DHT22;26030;51.164;17.100;2023-07-31T04:34:21;25.50;59.50
40323;DHT22;26030;51.164;17.100;2023-07-31T04:39:25;25.50;59.50
40323;DHT22;26030;51.164;17.100;2023-07-31T04:44:30;25.50;59.90
40323;DHT22;26030;51.164;17.100;2023-07-31T04:49:34;25.50;59.90
40323;DHT22;26030;51.164;17.100;2023-07-31T04:54:38;25.50;59.50
40323;DHT22;26030;51.164;17.100;2023-07-31T04:59:43;25.50;59.50
40323;DHT22;26030;51.164;17.100;2023-07-31T05:04:47;25.50;59.70
40323;DHT22;26030;51.164;17.100;2023-07-31T05:09:51;25.50;59.40
40323;DHT22;26030;51.164;17.100;2023-07-31T05:14:55;25.50;59.50
40323;DHT22;26030;51.164;17.100;2023-07-31T05:20:00;25.40;59.40
40323;DHT22;26030;51.164;17.100;2023-07-31T05:25:04;25.50;59.50
40323;DHT22;26030;51.164;17.100;2023-07-31T05:30:09;25.50;59.40
40323;DHT22;26030;51.164;17.100;2023-07-31T05:35:13;25.50;59.50
40323;DHT22;26030;51.164;17.100;2023-07-31T05:40:17;25.50;59.50
40323;DHT22;26030;51.164;17.100;2023-07-31T05:45:22;25.50;59.60
40323;DHT22;26030;51.164;17.100;2023-07-31T05:50:29;25.50;59.20
40323;DHT22;26030;51.164;17.100;2023-07-31T05:55:33;25.50;59.60
40323;DHT22;26030;51.164;17.100;2023-07-31T06:00:38;25.60;59.40
40323;DHT22;26030;51.164;17.100;2023-07-31T06:05:42;25.60;59.30
40323;DHT22;26030;51.164;17.100;2023-07-31T06:10:46;25.60;60.00
40323;DHT22;26030;51.164;17.100;2023-07-31T06:15:50;25.60;59.30
40323;DHT22;26030;51.164;17.100;2023-07-31T06:20:54;25.70;59.20
40323;DHT22;26030;51.164;17.100;2023-07-31T06:25:59;25.60;59.10
40323;DHT22;26030;51.164;17.100;2023-07-31T06:31:04;25.60;59.10
40323;DHT22;26030;51.164;17.100;2023-07-31T06:36:08;25.60;59.10
40323;DHT22;26030;51.164;17.100;2023-07-31T06:41:12;25.70;59.40
40323;DHT22;26030;51.164;17.100;2023-07-31T06:46:16;25.70;59.10
40323;DHT22;26030;51.164;17.100;2023-07-31T06:51:21;25.70;59.00
40323;DHT22;26030;51.164;17.100;2023-07-31T06:56:25;25.60;59.00
40323;DHT22;26030;51.164;17.100;2023-07-31T07:01:30;25.70;59.30
40323;DHT22;26030;51.164;17.100;2023-07-31T07:06:34;25.60;59.30
40323;DHT22;26030;51.164;17.100;2023-07-31T07:11:38;25.60;59.20
40323;DHT22;26030;51.164;17.100;2023-07-31T07:16:43;25.60;59.30
40323;DHT22;26030;51.164;17.100;2023-07-31T07:21:47;25.60;59.20
40323;DHT22;26030;51.164;17.100;2023-07-31T07:26:51;25.60;59.20
40323;DHT22;26030;51.164;17.100;2023-07-31T07:31:55;25.60;59.30
40323;DHT22;26030;51.164;17.100;2023-07-31T07:36:59;25.60;59.20
40323;DHT22;26030;51.164;17.100;2023-07-31T07:42:04;25.70;59.20
40323;DHT22;26030;51.164;17.100;2023-07-31T07:47:08;25.70;59.00
40323;DHT22;26030;51.164;17.100;2023-07-31T07:52:12;25.80;59.00
40323;DHT22;26030;51.164;17.100;2023-07-31T07:57:16;25.90;58.80
40323;DHT22;26030;51.164;17.100;2023-07-31T08:02:21;25.80;59.20
40323;DHT22;26030;51.164;17.100;2023-07-31T08:07:26;25.90;60.20
40323;DHT22;26030;51.164;17.100;2023-07-31T08:12:30;25.90;59.10
40323;DHT22;26030;51.164;17.100;2023-07-31T08:17:34;25.80;59.50
40323;DHT22;26030;51.164;17.100;2023-07-31T08:22:38;25.90;59.00
40323;DHT22;26030;51.164;17.100;2023-07-31T08:27:43;25.80;58.90
40323;DHT22;26030;51.164;17.100;2023-07-31T08:32:47;25.80;58.50
40323;DHT22;26030;51.164;17.100;2023-07-31T08:37:52;25.90;58.50
40323;DHT22;26030;51.164;17.100;2023-07-31T08:42:56;26.00;58.40
40323;DHT22;26030;51.164;17.100;2023-07-31T08:48:02;26.00;58.40
40323;DHT22;26030;51.164;17.100;2023-07-31T08:53:07;26.00;58.30
40323;DHT22;26030;51.164;17.100;2023-07-31T08:58:12;25.90;58.10
40323;DHT22;26030;51.164;17.100;2023-07-31T09:03:18;26.00;58.10
40323;DHT22;26030;51.164;17.100;2023-07-31T09:08:23;26.00;58.20
40323;DHT22;26030;51.164;17.100;2023-07-31T09:13:30;26.00;58.10
40323;DHT22;26030;51.164;17.100;2023-07-31T09:18:52;26.00;58.00
40323;DHT22;26030;51.164;17.100;2023-07-31T09:23:58;26.00;58.00
40323;DHT22;26030;51.164;17.100;2023-07-31T09:29:07;25.90;57.90
40323;DHT22;26030;51.164;17.100;2023-07-31T09:34:28;26.00;58.10
40323;DHT22;26030;51.164;17.100;2023-07-31T09:39:46;25.90;57.80
40323;DHT22;26030;51.164;17.100;2023-07-31T09:44:51;25.90;58.40
40323;DHT22;26030;51.164;17.100;2023-07-31T09:49:55;26.00;57.30
40323;DHT22;26030;51.164;17.100;2023-07-31T09:54:59;25.90;57.50
40323;DHT22;26030;51.164;17.100;2023-07-31T10:00:04;25.80;57.40
40323;DHT22;26030;51.164;17.100;2023-07-31T10:05:17;25.80;56.90
40323;DHT22;26030;51.164;17.100;2023-07-31T10:10:24;25.70;57.10
40323;DHT22;26030;51.164;17.100;2023-07-31T10:15:29;25.70;57.10
40323;DHT22;26030;51.164;17.100;2023-07-31T10:20:35;25.70;56.60
40323;DHT22;26030;51.164;17.100;2023-07-31T10:25:40;25.70;56.40
40323;DHT22;26030;51.164;17.100;2023-07-31T10:30:45;25.70;56.60
40323;DHT22;26030;51.164;17.100;2023-07-31T10:35:50;25.70;56.40
40323;DHT22;26030;51.164;17.100;2023-07-31T10:41:07;25.70;56.40
40323;DHT22;26030;51.164;17.100;2023-07-31T10:46:13;25.60;56.20
40323;DHT22;26030;51.164;17.100;2023-07-31T10:51:18;25.60;55.50
40323;DHT22;26030;51.164;17.100;2023-07-31T10:56:26;25.40;55.10
40323;DHT22;26030;51.164;17.100;2023-07-31T11:02:04;25.40;54.90
40323;DHT22;26030;51.164;17.100;2023-07-31T11:07:02;25.40;55.00
40323;DHT22;26030;51.164;17.100;2023-07-31T11:12:09;25.30;55.00
40323;DHT22;26030;51.164;17.100;2023-07-31T11:17:15;25.30;54.80
40323;DHT22;26030;51.164;17.100;2023-07-31T11:22:28;25.20;55.40
40323;DHT22;26030;51.164;17.100;2023-07-31T11:27:38;25.20;55.30
40323;DHT22;26030;51.164;17.100;2023-07-31T11:32:44;25.20;55.40
40323;DHT22;26030;51.164;17.100;2023-07-31T11:37:58;25.20;55.30
40323;DHT22;26030;51.164;17.100;2023-07-31T11:43:04;25.20;55.00
40323;DHT22;26030;51.164;17.100;2023-07-31T11:48:08;25.20;54.90
40323;DHT22;26030;51.164;17.100;2023-07-31T11:53:13;25.20;54.90
40323;DHT22;26030;51.164;17.100;2023-07-31T11:58:18;25.20;55.50
40323;DHT22;26030;51.164;17.100;2023-07-31T12:03:23;25.10;55.10
40323;DHT22;26030;51.164;17.100;2023-07-31T12:08:28;25.20;55.10
40323;DHT22;26030;51.164;17.100;2023-07-31T12:13:33;25.20;55.20
40323;DHT22;26030;51.164;17.100;2023-07-31T12:18:39;25.10;54.80
40323;DHT22;26030;51.164;17.100;2023-07-31T12:23:43;25.00;54.70
40323;DHT22;26030;51.164;17.100;2023-07-31T12:28:48;25.30;54.70
40323;DHT22;26030;51.164;17.100;2023-07-31T12:33:54;25.40;54.50
40323;DHT22;26030;51.164;17.100;2023-07-31T12:38:59;25.50;54.50
40323;DHT22;26030;51.164;17.100;2023-07-31T12:44:03;25.50;54.50
40323;DHT22;26030;51.164;17.100;2023-07-31T12:49:08;25.60;54.70
40323;DHT22;26030;51.164;17.100;2023-07-31T12:54:13;25.60;54.70
40323;DHT22;26030;51.164;17.100;2023-07-31T12:59:17;25.60;54.80
40323;DHT22;26030;51.164;17.100;2023-07-31T13:04:21;25.60;55.00
40323;DHT22;26030;51.164;17.100;2023-07-31T13:09:25;25.70;55.10
40323;DHT22;26030;51.164;17.100;2023-07-31T13:14:31;25.70;55.00
40323;DHT22;26030;51.164;17.100;2023-07-31T13:19:35;25.70;55.20
40323;DHT22;26030;51.164;17.100;2023-07-31T13:24:39;25.60;55.10
40323;DHT22;26030;51.164;17.100;2023-07-31T13:29:44;25.60;55.10
40323;DHT22;26030;51.164;17.100;2023-07-31T13:34:48;25.70;55.40
40323;DHT22;26030;51.164;17.100;2023-07-31T13:39:53;25.70;55.40
40323;DHT22;26030;51.164;17.100;2023-07-31T13:44:58;25.70;55.20
40323;DHT22;26030;51.164;17.100;2023-07-31T13:50:03;25.80;55.30
40323;DHT22;26030;51.164;17.100;2023-07-31T13:55:07;26.00;55.30
40323;DHT22;26030;51.164;17.100;2023-07-31T14:00:12;26.00;55.40
40323;DHT22;26030;51.164;17.100;2023-07-31T14:05:16;26.00;55.60
40323;DHT22;26030;51.164;17.100;2023-07-31T14:10:21;26.00;55.50
40323;DHT22;26030;51.164;17.100;2023-07-31T14:15:25;26.00;55.60
40323;DHT22;26030;51.164;17.100;2023-07-31T14:20:29;26.00;55.40
40323;DHT22;26030;51.164;17.100;2023-07-31T14:25:33;26.10;55.50
40323;DHT22;26030;51.164;17.100;2023-07-31T14:30:38;26.10;55.30
40323;DHT22;26030;51.164;17.100;2023-07-31T14:35:42;26.00;55.20
40323;DHT22;26030;51.164;17.100;2023-07-31T14:40:46;26.10;55.40
40323;DHT22;26030;51.164;17.100;2023-07-31T14:45:51;26.00;55.40
40323;DHT22;26030;51.164;17.100;2023-07-31T14:50:57;26.00;55.50
40323;DHT22;26030;51.164;17.100;2023-07-31T14:56:02;25.90;55.50
40323;DHT22;26030;51.164;17.100;2023-07-31T15:01:06;25.90;55.50
40323;DHT22;26030;51.164;17.100;2023-07-31T15:06:11;26.00;55.50
40323;DHT22;26030;51.164;17.100;2023-07-31T15:11:16;26.00;55.30
40323;DHT22;26030;51.164;17.100;2023-07-31T15:16:22;26.00;55.30
40323;DHT22;26030;51.164;17.100;2023-07-31T15:21:26;26.10;55.10
40323;DHT22;26030;51.164;17.100;2023-07-31T15:26:30;26.10;55.20
40323;DHT22;26030;51.164;17.100;2023-07-31T15:31:45;26.10;55.30
40323;DHT22;26030;51.164;17.100;2023-07-31T15:36:52;26.10;55.30
40323;DHT22;26030;51.164;17.100;2023-07-31T15:41:57;26.00;55.40
40323;DHT22;26030;51.164;17.100;2023-07-31T15:47:01;26.00;55.50
40323;DHT22;26030;51.164;17.100;2023-07-31T15:52:06;26.00;55.50
40323;DHT22;26030;51.164;17.100;2023-07-31T15:57:11;26.00;55.40
40323;DHT22;26030;51.164;17.100;2023-07-31T16:02:15;26.00;55.80
40323;DHT22;26030;51.164;17.100;2023-07-31T16:07:19;26.00;55.30
40323;DHT22;26030;51.164;17.100;2023-07-31T16:12:25;26.10;55.40
40323;DHT22;26030;51.164;17.100;2023-07-31T16:17:30;26.20;55.30
40323;DHT22;26030;51.164;17.100;2023-07-31T16:22:34;26.10;55.30
40323;DHT22;26030;51.164;17.100;2023-07-31T16:27:40;26.10;55.30
40323;DHT22;26030;51.164;17.100;2023-07-31T16:32:44;26.10;55.60
40323;DHT22;26030;51.164;17.100;2023-07-31T16:37:50;26.10;58.30
40323;DHT22;26030;51.164;17.100;2023-07-31T16:42:54;26.10;57.80
40323;DHT22;26030;51.164;17.100;2023-07-31T16:48:00;26.10;56.90
40323;DHT22;26030;51.164;17.100;2023-07-31T16:53:05;26.20;56.90
40323;DHT22;26030;51.164;17.100;2023-07-31T16:58:09;26.00;56.80
40323;DHT22;26030;51.164;17.100;2023-07-31T17:03:13;26.00;56.70
40323;DHT22;26030;51.164;17.100;2023-07-31T17:08:18;26.00;56.80
40323;DHT22;26030;51.164;17.100;2023-07-31T17:13:22;26.00;56.80
40323;DHT22;26030;51.164;17.100;2023-07-31T17:18:26;26.00;56.40
40323;DHT22;26030;51.164;17.100;2023-07-31T17:23:30;26.00;56.50
40323;DHT22;26030;51.164;17.100;2023-07-31T17:28:34;26.10;56.40
40323;DHT22;26030;51.164;17.100;2023-07-31T17:33:39;26.00;55.80
40323;DHT22;26030;51.164;17.100;2023-07-31T17:38:44;26.00;56.30
40323;DHT22;26030;51.164;17.100;2023-07-31T17:43:49;26.00;56.30
40323;DHT22;26030;51.164;17.100;2023-07-31T17:48:54;26.00;56.10
40323;DHT22;26030;51.164;17.100;2023-07-31T17:53:59;26.00;56.50
40323;DHT22;26030;51.164;17.100;2023-07-31T17:59:04;25.90;56.00
40323;DHT22;26030;51.164;17.100;2023-07-31T18:04:09;25.90;56.20
40323;DHT22;26030;51.164;17.100;2023-07-31T18:09:14;25.90;55.80
40323;DHT22;26030;51.164;17.100;2023-07-31T18:14:19;25.90;56.10
40323;DHT22;26030;51.164;17.100;2023-07-31T18:19:28;25.90;55.60
40323;DHT22;26030;51.164;17.100;2023-07-31T18:24:36;25.80;55.80
40323;DHT22;26030;51.164;17.100;2023-07-31T18:29:42;25.80;55.60
40323;DHT22;26030;51.164;17.100;2023-07-31T18:34:46;25.80;55.50
40323;DHT22;26030;51.164;17.100;2023-07-31T18:39:51;25.90;55.30
40323;DHT22;26030;51.164;17.100;2023-07-31T18:44:56;25.80;55.20
40323;DHT22;26030;51.164;17.100;2023-07-31T18:50:01;25.80;55.20
40323;DHT22;26030;51.164;17.100;2023-07-31T18:55:06;25.80;55.20
40323;DHT22;26030;51.164;17.100;2023-07-31T19:00:12;25.80;55.20
40323;DHT22;26030;51.164;17.100;2023-07-31T19:05:16;25.80;55.20
40323;DHT22;26030;51.164;17.100;2023-07-31T19:10:22;25.70;55.10
40323;DHT22;26030;51.164;17.100;2023-07-31T19:15:26;25.80;55.40
40323;DHT22;26030;51.164;17.100;2023-07-31T19:20:31;25.70;55.30
40323;DHT22;26030;51.164;17.100;2023-07-31T19:25:36;25.80;55.30
40323;DHT22;26030;51.164;17.100;2023-07-31T19:30:41;25.80;55.70
40323;DHT22;26030;51.164;17.100;2023-07-31T19:35:53;25.80;55.30
40323;DHT22;26030;51.164;17.100;2023-07-31T19:41:02;25.70;55.60
40323;DHT22;26030;51.164;17.100;2023-07-31T19:46:07;25.70;55.40
40323;DHT22;26030;51.164;17.100;2023-07-31T19:51:11;25.70;55.20
40323;DHT22;26030;51.164;17.100;2023-07-31T19:56:17;25.70;55.60
40323;DHT22;26030;51.164;17.100;2023-07-31T20:01:21;25.70;55.80
40323;DHT22;26030;51.164;17.100;2023-07-31T20:06:28;25.70;55.60
40323;DHT22;26030;51.164;17.100;2023-07-31T20:11:33;25.70;55.80
40323;DHT22;26030;51.164;17.100;2023-07-31T20:16:38;25.70;56.10
40323;DHT22;26030;51.164;17.100;2023-07-31T20:21:45;25.70;56.00
40323;DHT22;26030;51.164;17.100;2023-07-31T20:26:50;25.70;55.70
40323;DHT22;26030;51.164;17.100;2023-07-31T20:31:55;25.70;55.70
40323;DHT22;26030;51.164;17.100;2023-07-31T20:37:00;25.70;55.90
40323;DHT22;26030;51.164;17.100;2023-07-31T20:42:05;25.70;55.80
40323;DHT22;26030;51.164;17.100;2023-07-31T20:47:11;25.60;56.20
40323;DHT22;26030;51.164;17.100;2023-07-31T20:52:15;25.70;56.60
40323;DHT22;26030;51.164;17.100;2023-07-31T20:57:20;25.70;57.10
40323;DHT22;26030;51.164;17.100;2023-07-31T21:02:24;25.70;58.50
40323;DHT22;26030;51.164;17.100;2023-07-31T21:07:29;25.50;57.30
40323;DHT22;26030;51.164;17.100;2023-07-31T21:12:33;25.40;57.50
40323;DHT22;26030;51.164;17.100;2023-07-31T21:17:38;25.30;57.20
40323;DHT22;26030;51.164;17.100;2023-07-31T21:22:45;25.10;57.60
40323;DHT22;26030;51.164;17.100;2023-07-31T21:27:49;25.00;57.70
40323;DHT22;26030;51.164;17.100;2023-07-31T21:32:53;24.90;58.70
40323;DHT22;26030;51.164;17.100;2023-07-31T21:37:58;25.00;58.70
40323;DHT22;26030;51.164;17.100;2023-07-31T21:43:02;25.20;58.30
40323;DHT22;26030;51.164;17.100;2023-07-31T21:48:06;25.40;57.70
40323;DHT22;26030;51.164;17.100;2023-07-31T21:53:10;25.40;58.00
40323;DHT22;26030;51.164;17.100;2023-07-31T21:58:15;25.50;58.30
40323;DHT22;26030;51.164;17.100;2023-07-31T22:03:19;25.50;58.20
40323;DHT22;26030;51.164;17.100;2023-07-31T22:08:24;25.60;58.30
40323;DHT22;26030;51.164;17.100;2023-07-31T22:13:28;25.60;58.10
40323;DHT22;26030;51.164;17.100;2023-07-31T22:18:32;25.60;58.60
40323;DHT22;26030;51.164;17.100;2023-07-31T22:23:37;25.60;58.70
40323;DHT22;26030;51.164;17.100;2023-07-31T22:28:41;25.60;58.40
40323;DHT22;26030;51.164;17.100;2023-07-31T22:33:45;25.60;58.40
40323;DHT22;26030;51.164;17.100;2023-07-31T22:38:50;25.50;58.40
40323;DHT22;26030;51.164;17.100;2023-07-31T22:43:54;25.50;58.50
40323;DHT22;26030;51.164;17.100;2023-07-31T22:48:58;25.40;58.50
40323;DHT22;26030;51.164;17.100;2023-07-31T22:54:03;25.40;58.50
40323;DHT22;26030;51.164;17.100;2023-07-31T22:59:07;25.40;58.30
40323;DHT22;26030;51.164;17.100;2023-07-31T23:04:11;25.40;58.60
40323;DHT22;26030;51.164;17.100;2023-07-31T23:09:15;25.50;58.30
40323;DHT22;26030;51.164;17.100;2023-07-31T23:14:20;25.40;58.40
40323;DHT22;26030;51.164;17.100;2023-07-31T23:19:24;25.40;58.40
40323;DHT22;26030;51.164;17.100;2023-07-31T23:24:29;25.50;59.00
40323;DHT22;26030;51.164;17.100;2023-07-31T23:29:33;25.70;58.80
40323;DHT22;26030;51.164;17.100;2023-07-31T23:34:39;25.60;59.30
40323;DHT22;26030;51.164;17.100;2023-07-31T23:39:44;25.70;58.50
40323;DHT22;26030;51.164;17.100;2023-07-31T23:44:50;25.70;58.30
40323;DHT22;26030;51.164;17.100;2023-07-31T23:50:12;25.70;58.40
40323;DHT22;26030;51.164;17.100;2023-07-31T23:55:17;25.60;58.00
